Shearwater — 3ESK5 — position and weather

sailwx.info

Track history (hours):
 
Tides and Currents Weather Stations Pressure Air Temp Water Temp Dewpoint Dewpoint Depression Visibility Wind Speed Wind Dir Waves Ship Positions

Shearwater

Last reported at 2016-Apr-26 10:32 UTC. Time now 2016-May-01 17:29 UTC.
Position N 01°15' E 104°08'.

Length 210 m; draft 10.5 m.

Type: Cargo ship. MMSI: 370338000.

Date/timePositionNaut miles runAvg speedWind from/ knotsBaromVisibWave heightAir tempDewpointWater temp
2016-Apr-26 10:32N 01°15' E 104°08'9 9.2
2016-Apr-26 09:33N 01°17' E 103°59'1 0.6
2016-Apr-26 08:26N 01°17' E 103°59'0 0.0
2016-Apr-26 07:20N 01°17' E 103°59'0 0.1
2016-Apr-26 05:23N 01°17' E 103°59'0 0.0
2016-Apr-26 04:26N 01°17' E 103°59'0 0.1
2016-Apr-26 02:26N 01°17' E 103°59'0 0.0
2016-Apr-26 01:20N 01°17' E 103°59'0 0.0
2016-Apr-26 00:32N 01°17' E 103°59'0 0.0
2016-Apr-25 23:32N 01°17' E 103°59'0 0.0
2016-Apr-25 22:32N 01°17' E 103°59'0 0.0
2016-Apr-25 21:32N 01°17' E 103°59'2 1.9
2016-Apr-25 20:34N 01°16' E 103°58'2 2.0
2016-Apr-25 19:34N 01°14' E 103°57'5 5.2
2016-Apr-25 18:34N 01°12' E 103°52'5 5.0
2016-Apr-25 17:33N 01°09' E 103°48'6 5.7
2016-Apr-25 16:34N 01°05' E 103°44'7 7.3
2016-Apr-25 15:33N 01°04' E 103°37'9 9.2
2016-Apr-25 14:33N 01°09' E 103°29'47 8.8
2016-Apr-25 09:10N 01°36' E 102°50'812.5
2016-Apr-25 08:31N 01°40' E 102°43'11 9.9
2016-Apr-25 07:27N 01°45' E 102°33'9 9.5
2016-Apr-25 06:28N 01°49' E 102°25'  
Track history (hours):
 
Tides and Currents Weather Stations Pressure Air Temp Water Temp Dewpoint Dewpoint Depression Visibility Wind Speed Wind Dir Waves Ship Positions

Shearwater

Last reported at 2016-Apr-26 10:32 UTC. Time now 2016-May-01 17:29 UTC.
Position N 01°15' E 104°08'.

Length 210 m; draft 10.5 m.

Type: Cargo ship. MMSI: 370338000.

Date/timePositionNaut miles runAvg speedWind from/ knotsBaromVisibWave heightAir tempDewpointWater temp
2016-Apr-26 10:32N 01°15' E 104°08'9 9.2
2016-Apr-26 09:33N 01°17' E 103°59'1 0.6
2016-Apr-26 08:26N 01°17' E 103°59'0 0.0
2016-Apr-26 07:20N 01°17' E 103°59'0 0.1
2016-Apr-26 05:23N 01°17' E 103°59'0 0.0
2016-Apr-26 04:26N 01°17' E 103°59'0 0.1
2016-Apr-26 02:26N 01°17' E 103°59'0 0.0
2016-Apr-26 01:20N 01°17' E 103°59'0 0.0
2016-Apr-26 00:32N 01°17' E 103°59'0 0.0
2016-Apr-25 23:32N 01°17' E 103°59'0 0.0
2016-Apr-25 22:32N 01°17' E 103°59'0 0.0
2016-Apr-25 21:32N 01°17' E 103°59'2 1.9
2016-Apr-25 20:34N 01°16' E 103°58'2 2.0
2016-Apr-25 19:34N 01°14' E 103°57'5 5.2
2016-Apr-25 18:34N 01°12' E 103°52'5 5.0
2016-Apr-25 17:33N 01°09' E 103°48'6 5.7
2016-Apr-25 16:34N 01°05' E 103°44'7 7.3
2016-Apr-25 15:33N 01°04' E 103°37'9 9.2
2016-Apr-25 14:33N 01°09' E 103°29'47 8.8
2016-Apr-25 09:10N 01°36' E 102°50'812.5
2016-Apr-25 08:31N 01°40' E 102°43'11 9.9
2016-Apr-25 07:27N 01°45' E 102°33'9 9.5
2016-Apr-25 06:28N 01°49' E 102°25'  

Dump ship's entire track history